sensor_id;sensor_type;location;lat;lon;timestamp;pressure;altitude;pressure_sealevel;temperature;humidity
29331;BME280;16331;52.528;13.342;2022-09-17T00:00:30;159110.53;;;12.38;100.00
29331;BME280;16331;52.528;13.342;2022-09-17T00:02:56;159127.00;;;12.44;100.00
29331;BME280;16331;52.528;13.342;2022-09-17T00:05:23;159122.88;;;12.43;100.00
29331;BME280;16331;52.528;13.342;2022-09-17T00:07:50;159129.75;;;12.45;100.00
29331;BME280;16331;52.528;13.342;2022-09-17T00:10:17;159144.88;;;12.51;100.00
29331;BME280;16331;52.528;13.342;2022-09-17T00:12:44;159146.28;;;12.51;100.00
29331;BME280;16331;52.528;13.342;2022-09-17T00:15:10;159136.63;;;12.48;100.00
29331;BME280;16331;52.528;13.342;2022-09-17T00:17:36;159128.41;;;12.45;100.00
29331;BME280;16331;52.528;13.342;2022-09-17T00:20:03;159136.63;;;12.48;100.00
29331;BME280;16331;52.528;13.342;2022-09-17T00:22:30;159142.16;;;12.50;100.00
29331;BME280;16331;52.528;13.342;2022-09-17T00:24:56;159180.63;;;12.64;100.00
29331;BME280;16331;52.528;13.342;2022-09-17T00:27:22;159171.00;;;12.60;100.00
29331;BME280;16331;52.528;13.342;2022-09-17T00:29:48;159187.47;;;12.66;100.00
29331;BME280;16331;52.528;13.342;2022-09-17T00:32:14;159195.72;;;12.69;100.00
29331;BME280;16331;52.528;13.342;2022-09-17T00:34:42;159183.34;;;12.65;100.00
29331;BME280;16331;52.528;13.342;2022-09-17T00:37:08;159175.13;;;12.62;100.00
29331;BME280;16331;52.528;13.342;2022-09-17T00:39:34;159202.63;;;12.72;100.00
29331;BME280;16331;52.528;13.342;2022-09-17T00:42:00;159232.84;;;12.83;100.00
29331;BME280;16331;52.528;13.342;2022-09-17T00:44:59;159238.38;;;12.85;100.00
29331;BME280;16331;52.528;13.342;2022-09-17T00:50:00;159227.34;;;12.81;100.00
29331;BME280;16331;52.528;13.342;2022-09-17T00:52:40;159236.97;;;12.84;100.00
29331;BME280;16331;52.528;13.342;2022-09-17T00:57:43;159246.59;;;12.88;100.00
29331;BME280;16331;52.528;13.342;2022-09-17T01:00:13;159254.84;;;12.91;100.00
29331;BME280;16331;52.528;13.342;2022-09-17T01:02:40;159296.16;;;13.06;100.00
29331;BME280;16331;52.528;13.342;2022-09-17T01:05:07;159274.13;;;12.98;100.00
29331;BME280;16331;52.528;13.342;2022-09-17T01:13:11;159301.63;;;13.08;100.00
29331;BME280;16331;52.528;13.342;2022-09-17T01:15:53;159293.38;;;13.05;100.00
29331;BME280;16331;52.528;13.342;2022-09-17T01:24:54;159297.50;;;13.06;100.00
29331;BME280;16331;52.528;13.342;2022-09-17T01:30:17;159290.66;;;13.04;100.00
29331;BME280;16331;52.528;13.342;2022-09-17T01:33:17;159308.53;;;13.11;100.00
29331;BME280;16331;52.528;13.342;2022-09-17T01:36:00;159325.03;;;13.17;100.00
29331;BME280;16331;52.528;13.342;2022-09-17T01:38:40;159316.78;;;13.14;100.00
29331;BME280;16331;52.528;13.342;2022-09-17T01:44:57;159326.41;;;13.17;100.00
29331;BME280;16331;52.528;13.342;2022-09-17T01:48:18;159318.16;;;13.14;100.00
29331;BME280;16331;52.528;13.342;2022-09-17T01:51:10;159298.91;;;13.07;100.00
29331;BME280;16331;52.528;13.342;2022-09-17T01:56:20;159267.22;;;12.95;100.00
29331;BME280;16331;52.528;13.342;2022-09-17T01:59:02;159264.47;;;12.94;100.00
29331;BME280;16331;52.528;13.342;2022-09-17T02:01:31;159278.25;;;12.99;100.00
29331;BME280;16331;52.528;13.342;2022-09-17T02:07:08;159267.22;;;12.95;100.00
29331;BME280;16331;52.528;13.342;2022-09-17T02:09:54;159269.94;;;12.96;100.00
29331;BME280;16331;52.528;13.342;2022-09-17T02:12:36;159293.38;;;13.05;100.00
29331;BME280;16331;52.528;13.342;2022-09-17T02:15:08;159260.34;;;12.93;100.00
29331;BME280;16331;52.528;13.342;2022-09-17T02:18:02;159268.59;;;12.96;100.00
29331;BME280;16331;52.528;13.342;2022-09-17T02:21:11;159294.78;;;13.05;100.00
29331;BME280;16331;52.528;13.342;2022-09-17T02:24:18;159318.16;;;13.14;100.00
29331;BME280;16331;52.528;13.342;2022-09-17T02:26:54;159309.88;;;13.11;100.00
29331;BME280;16331;52.528;13.342;2022-09-17T02:29:36;159311.25;;;13.12;100.00
29331;BME280;16331;52.528;13.342;2022-09-17T02:32:02;159305.75;;;13.09;100.00
29331;BME280;16331;52.528;13.342;2022-09-17T02:34:29;159308.53;;;13.11;100.00
29331;BME280;16331;52.528;13.342;2022-09-17T02:36:56;159285.13;;;13.02;100.00
29331;BME280;16331;52.528;13.342;2022-09-17T02:39:24;159311.25;;;13.12;100.00
29331;BME280;16331;52.528;13.342;2022-09-17T02:58:16;159359.38;;;13.29;100.00
29331;BME280;16331;52.528;13.342;2022-09-17T03:00:46;159345.63;;;13.24;100.00
29331;BME280;16331;52.528;13.342;2022-09-17T03:03:20;159334.66;;;13.20;100.00
29331;BME280;16331;52.528;13.342;2022-09-17T03:05:48;159336.00;;;13.21;100.00
29331;BME280;16331;52.528;13.342;2022-09-17T03:08:16;159312.66;;;13.12;100.00
29331;BME280;16331;52.528;13.342;2022-09-17T03:10:45;159322.28;;;13.16;100.00
29331;BME280;16331;52.528;13.342;2022-09-17T03:13:11;159345.63;;;13.24;100.00
29331;BME280;16331;52.528;13.342;2022-09-17T03:15:38;159338.78;;;13.22;100.00
29331;BME280;16331;52.528;13.342;2022-09-17T03:18:04;159355.28;;;13.28;100.00
29331;BME280;16331;52.528;13.342;2022-09-17T03:20:30;159353.88;;;13.27;100.00
29331;BME280;16331;52.528;13.342;2022-09-17T03:22:56;159345.63;;;13.24;100.00
29331;BME280;16331;52.528;13.342;2022-09-17T03:25:23;159362.13;;;13.30;100.00
29331;BME280;16331;52.528;13.342;2022-09-17T03:27:49;159364.91;;;13.31;100.00
29331;BME280;16331;52.528;13.342;2022-09-17T03:30:15;159353.88;;;13.27;100.00
29331;BME280;16331;52.528;13.342;2022-09-17T03:32:41;159347.03;;;13.25;100.00
29331;BME280;16331;52.528;13.342;2022-09-17T03:35:08;159356.66;;;13.28;100.00
29331;BME280;16331;52.528;13.342;2022-09-17T03:37:34;159360.78;;;13.30;100.00
29331;BME280;16331;52.528;13.342;2022-09-17T03:40:00;159380.00;;;13.37;100.00
29331;BME280;16331;52.528;13.342;2022-09-17T03:42:26;159403.41;;;13.45;100.00
29331;BME280;16331;52.528;13.342;2022-09-17T03:44:54;159424.03;;;13.53;100.00
29331;BME280;16331;52.528;13.342;2022-09-17T03:47:20;159410.31;;;13.48;100.00
29331;BME280;16331;52.528;13.342;2022-09-17T03:49:46;159430.94;;;13.55;100.00
29331;BME280;16331;52.528;13.342;2022-09-17T03:52:12;159397.88;;;13.43;100.00
29331;BME280;16331;52.528;13.342;2022-09-17T03:54:38;159403.41;;;13.45;100.00
29331;BME280;16331;52.528;13.342;2022-09-17T03:57:04;159374.53;;;13.35;100.00
29331;BME280;16331;52.528;13.342;2022-09-17T03:59:31;159406.13;;;13.46;100.00
29331;BME280;16331;52.528;13.342;2022-09-17T04:01:57;159386.91;;;13.39;100.00
29331;BME280;16331;52.528;13.342;2022-09-17T04:04:23;159402.00;;;13.45;100.00
29331;BME280;16331;52.528;13.342;2022-09-17T04:06:49;159414.44;;;13.49;100.00
29331;BME280;16331;52.528;13.342;2022-09-17T04:09:15;159425.41;;;13.53;100.00
29331;BME280;16331;52.528;13.342;2022-09-17T04:11:41;159436.44;;;13.57;100.00
29331;BME280;16331;52.528;13.342;2022-09-17T04:14:07;159450.16;;;13.62;100.00
29331;BME280;16331;52.528;13.342;2022-09-17T04:16:33;159424.03;;;13.53;100.00
29331;BME280;16331;52.528;13.342;2022-09-17T04:19:00;159428.16;;;13.54;100.00
29331;BME280;16331;52.528;13.342;2022-09-17T04:21:26;159402.00;;;13.45;100.00
29331;BME280;16331;52.528;13.342;2022-09-17T04:23:52;159419.91;;;13.51;100.00
29331;BME280;16331;52.528;13.342;2022-09-17T04:26:18;159429.53;;;13.55;100.00
29331;BME280;16331;52.528;13.342;2022-09-17T04:28:44;159422.69;;;13.52;100.00
29331;BME280;16331;52.528;13.342;2022-09-17T04:31:10;159430.94;;;13.55;100.00
29331;BME280;16331;52.528;13.342;2022-09-17T04:33:36;159435.06;;;13.57;100.00
29331;BME280;16331;52.528;13.342;2022-09-17T04:36:02;159469.44;;;13.69;100.00
29331;BME280;16331;52.528;13.342;2022-09-17T04:38:29;159451.56;;;13.63;100.00
29331;BME280;16331;52.528;13.342;2022-09-17T04:40:55;159466.69;;;13.68;100.00
29331;BME280;16331;52.528;13.342;2022-09-17T04:43:22;159466.69;;;13.68;100.00
29331;BME280;16331;52.528;13.342;2022-09-17T04:45:48;159451.56;;;13.63;100.00
29331;BME280;16331;52.528;13.342;2022-09-17T04:48:15;159469.44;;;13.69;100.00
29331;BME280;16331;52.528;13.342;2022-09-17T04:50:42;159430.94;;;13.55;100.00
29331;BME280;16331;52.528;13.342;2022-09-17T04:53:09;159474.94;;;13.71;100.00
29331;BME280;16331;52.528;13.342;2022-09-17T04:55:35;159433.66;;;13.56;100.00
29331;BME280;16331;52.528;13.342;2022-09-17T04:58:01;159447.44;;;13.61;100.00
29331;BME280;16331;52.528;13.342;2022-09-17T05:00:27;159466.69;;;13.68;100.00
29331;BME280;16331;52.528;13.342;2022-09-17T05:02:54;159494.19;;;13.78;100.00
29331;BME280;16331;52.528;13.342;2022-09-17T05:05:22;159451.56;;;13.63;100.00
29331;BME280;16331;52.528;13.342;2022-09-17T05:07:48;159452.94;;;13.63;100.00
29331;BME280;16331;52.528;13.342;2022-09-17T05:10:15;159458.47;;;13.65;100.00
29331;BME280;16331;52.528;13.342;2022-09-17T05:12:50;159483.19;;;13.74;100.00
29331;BME280;16331;52.528;13.342;2022-09-17T05:15:17;159480.47;;;13.73;100.00
29331;BME280;16331;52.528;13.342;2022-09-17T05:17:43;159455.66;;;13.64;100.00
29331;BME280;16331;52.528;13.342;2022-09-17T05:20:10;159499.69;;;13.80;100.00
29331;BME280;16331;52.528;13.342;2022-09-17T05:22:48;159496.97;;;13.79;100.00
29331;BME280;16331;52.528;13.342;2022-09-17T05:25:16;159534.09;;;13.93;100.00
29331;BME280;16331;52.528;13.342;2022-09-17T05:27:43;159538.22;;;13.94;100.00
29331;BME280;16331;52.528;13.342;2022-09-17T05:30:10;159524.44;;;13.89;100.00
29331;BME280;16331;52.528;13.342;2022-09-17T05:32:36;159532.75;;;13.92;100.00
29331;BME280;16331;52.528;13.342;2022-09-17T05:35:04;159568.47;;;14.05;100.00
29331;BME280;16331;52.528;13.342;2022-09-17T05:37:30;159602.94;;;14.18;100.00
29331;BME280;16331;52.528;13.342;2022-09-17T05:39:57;159597.41;;;14.16;100.00
29331;BME280;16331;52.528;13.342;2022-09-17T05:42:23;159600.16;;;14.17;100.00
29331;BME280;16331;52.528;13.342;2022-09-17T05:44:49;159622.22;;;14.25;100.00
29331;BME280;16331;52.528;13.342;2022-09-17T05:47:15;159556.09;;;14.01;100.00
29331;BME280;16331;52.528;13.342;2022-09-17T05:49:41;159560.22;;;14.02;100.00
29331;BME280;16331;52.528;13.342;2022-09-17T05:52:07;159583.66;;;14.11;100.00
29331;BME280;16331;52.528;13.342;2022-09-17T05:54:33;159600.16;;;14.17;100.00
29331;BME280;16331;52.528;13.342;2022-09-17T05:56:59;159557.50;;;14.01;100.00
29331;BME280;16331;52.528;13.342;2022-09-17T05:59:26;159518.97;;;13.87;100.00
29331;BME280;16331;52.528;13.342;2022-09-17T06:01:53;159494.19;;;13.78;100.00
29331;BME280;16331;52.528;13.342;2022-09-17T06:04:20;159418.56;;;13.51;100.00
29331;BME280;16331;52.528;13.342;2022-09-17T06:06:46;159433.66;;;13.56;100.00
29331;BME280;16331;52.528;13.342;2022-09-17T06:09:12;159466.69;;;13.68;100.00
29331;BME280;16331;52.528;13.342;2022-09-17T06:11:38;159516.19;;;13.86;100.00
29331;BME280;16331;52.528;13.342;2022-09-17T06:14:05;159484.59;;;13.75;100.00
29331;BME280;16331;52.528;13.342;2022-09-17T06:16:31;159485.94;;;13.75;100.00
29331;BME280;16331;52.528;13.342;2022-09-17T06:18:57;159499.69;;;13.80;100.00
29331;BME280;16331;52.528;13.342;2022-09-17T06:21:23;159485.94;;;13.75;100.00
29331;BME280;16331;52.528;13.342;2022-09-17T06:23:50;159469.44;;;13.69;100.00
29331;BME280;16331;52.528;13.342;2022-09-17T06:26:17;159494.19;;;13.78;100.00
29331;BME280;16331;52.528;13.342;2022-09-17T06:28:43;159516.19;;;13.86;100.00
29331;BME280;16331;52.528;13.342;2022-09-17T06:31:11;159557.50;;;14.01;100.00
29331;BME280;16331;52.528;13.342;2022-09-17T06:33:38;159626.34;;;14.26;100.00
29331;BME280;16331;52.528;13.342;2022-09-17T06:36:07;159593.28;;;14.14;100.00
29331;BME280;16331;52.528;13.342;2022-09-17T06:38:34;159585.03;;;14.11;100.00
29331;BME280;16331;52.528;13.342;2022-09-17T06:41:02;159579.53;;;14.09;100.00
29331;BME280;16331;52.528;13.342;2022-09-17T06:43:30;159591.91;;;14.14;100.00
29331;BME280;16331;52.528;13.342;2022-09-17T06:45:58;159563.00;;;14.03;100.00
29331;BME280;16331;52.528;13.342;2022-09-17T06:48:25;159525.84;;;13.90;100.00
29331;BME280;16331;52.528;13.342;2022-09-17T06:50:52;159521.72;;;13.88;100.00
29331;BME280;16331;52.528;13.342;2022-09-17T06:53:20;159565.75;;;14.04;100.00
29331;BME280;16331;52.528;13.342;2022-09-17T06:55:46;159565.75;;;14.04;100.00
29331;BME280;16331;52.528;13.342;2022-09-17T06:58:12;159565.75;;;14.04;100.00
29331;BME280;16331;52.528;13.342;2022-09-17T07:00:38;159550.66;;;13.99;100.00
29331;BME280;16331;52.528;13.342;2022-09-17T07:03:04;159591.91;;;14.14;100.00
29331;BME280;16331;52.528;13.342;2022-09-17T07:05:31;159590.50;;;14.13;100.00
29331;BME280;16331;52.528;13.342;2022-09-17T07:08:01;159623.63;;;14.25;100.00
29331;BME280;16331;52.528;13.342;2022-09-17T07:10:30;159602.94;;;14.18;100.00
29331;BME280;16331;52.528;13.342;2022-09-17T07:12:57;159609.78;;;14.20;100.00
29331;BME280;16331;52.528;13.342;2022-09-17T07:15:24;159596.03;;;14.15;100.00
29331;BME280;16331;52.528;13.342;2022-09-17T07:17:50;159629.13;;;14.27;100.00
29331;BME280;16331;52.528;13.342;2022-09-17T07:20:18;159597.41;;;14.16;100.00
29331;BME280;16331;52.528;13.342;2022-09-17T07:22:44;159568.47;;;14.05;100.00
29331;BME280;16331;52.528;13.342;2022-09-17T07:25:11;159609.78;;;14.20;100.00
29331;BME280;16331;52.528;13.342;2022-09-17T07:27:37;159664.94;;;14.40;100.00
29331;BME280;16331;52.528;13.342;2022-09-17T07:30:04;159681.44;;;14.46;100.00
29331;BME280;16331;52.528;13.342;2022-09-17T07:32:30;159666.28;;;14.41;100.00
29331;BME280;16331;52.528;13.342;2022-09-17T07:34:56;159714.47;;;14.59;100.00
29331;BME280;16331;52.528;13.342;2022-09-17T07:37:22;159775.03;;;14.81;100.00
29331;BME280;16331;52.528;13.342;2022-09-17T07:39:49;159753.00;;;14.73;100.00
29331;BME280;16331;52.528;13.342;2022-09-17T07:42:15;159735.16;;;14.66;100.00
29331;BME280;16331;52.528;13.342;2022-09-17T07:44:41;159680.03;;;14.46;100.00
29331;BME280;16331;52.528;13.342;2022-09-17T07:47:07;159766.78;;;14.78;100.00
29331;BME280;16331;52.528;13.342;2022-09-17T07:49:34;159775.03;;;14.81;100.00
29331;BME280;16331;52.528;13.342;2022-09-17T07:52:02;159769.56;;;14.79;100.00
29331;BME280;16331;52.528;13.342;2022-09-17T07:54:34;159725.50;;;14.63;100.00
29331;BME280;16331;52.528;13.342;2022-09-17T07:57:05;159699.34;;;14.53;100.00
29331;BME280;16331;52.528;13.342;2022-09-17T07:59:31;159795.72;;;14.88;100.00
29331;BME280;16331;52.528;13.342;2022-09-17T08:01:57;159761.31;;;14.76;100.00
29331;BME280;16331;52.528;13.342;2022-09-17T08:04:24;159808.09;;;14.93;100.00
29331;BME280;16331;52.528;13.342;2022-09-17T08:06:50;159819.09;;;14.97;100.00
29331;BME280;16331;52.528;13.342;2022-09-17T08:09:16;159765.44;;;14.77;100.00
29331;BME280;16331;52.528;13.342;2022-09-17T08:11:45;159725.50;;;14.63;100.00
29331;BME280;16331;52.528;13.342;2022-09-17T08:14:13;159725.50;;;14.63;100.00
29331;BME280;16331;52.528;13.342;2022-09-17T08:16:39;159696.56;;;14.52;100.00
29331;BME280;16331;52.528;13.342;2022-09-17T08:19:06;159770.91;;;14.79;100.00
29331;BME280;16331;52.528;13.342;2022-09-17T08:21:33;159890.75;;;15.23;100.00
29331;BME280;16331;52.528;13.342;2022-09-17T08:24:00;159859.06;;;15.11;100.00
29331;BME280;16331;52.528;13.342;2022-09-17T08:26:30;159846.66;;;15.07;100.00
29331;BME280;16331;52.528;13.342;2022-09-17T08:28:56;159853.59;;;15.09;100.00
29331;BME280;16331;52.528;13.342;2022-09-17T08:31:24;159875.63;;;15.17;100.00
29331;BME280;16331;52.528;13.342;2022-09-17T08:33:55;159915.53;;;15.32;100.00
29331;BME280;16331;52.528;13.342;2022-09-17T08:36:21;159889.34;;;15.22;100.00
29331;BME280;16331;52.528;13.342;2022-09-17T08:38:50;159943.16;;;15.42;100.00
29331;BME280;16331;52.528;13.342;2022-09-17T08:41:44;159912.78;;;15.31;100.00
29331;BME280;16331;52.528;13.342;2022-09-17T08:46:51;159991.38;;;15.59;100.00
29331;BME280;16331;52.528;13.342;2022-09-17T08:49:34;159937.63;;;15.40;100.00
29331;BME280;16331;52.528;13.342;2022-09-17T08:52:16;159940.41;;;15.41;100.00
29331;BME280;16331;52.528;13.342;2022-09-17T08:57:45;159940.41;;;15.41;100.00
29331;BME280;16331;52.528;13.342;2022-09-17T09:00:17;159934.88;;;15.39;100.00
29331;BME280;16331;52.528;13.342;2022-09-17T09:05:54;159857.72;;;15.11;100.00
29331;BME280;16331;52.528;13.342;2022-09-17T09:08:41;159821.91;;;14.98;100.00
29331;BME280;16331;52.528;13.342;2022-09-17T09:11:20;159912.78;;;15.31;100.00
29331;BME280;16331;52.528;13.342;2022-09-17T09:13:49;159962.47;;;15.49;100.00
29331;BME280;16331;52.528;13.342;2022-09-17T09:16:24;159973.47;;;15.53;100.00
29331;BME280;16331;52.528;13.342;2022-09-17T09:18:54;160028.59;;;15.73;100.00
29331;BME280;16331;52.528;13.342;2022-09-17T09:21:45;159930.72;;;15.37;100.00
29331;BME280;16331;52.528;13.342;2022-09-17T09:24:28;159985.84;;;15.57;100.00
29331;BME280;16331;52.528;13.342;2022-09-17T09:27:17;160072.72;;;15.89;100.00
29331;BME280;16331;52.528;13.342;2022-09-17T09:29:59;160160.94;;;16.21;100.00
29331;BME280;16331;52.528;13.342;2022-09-17T09:32:46;160149.88;;;16.17;100.00
29331;BME280;16331;52.528;13.342;2022-09-17T09:35:27;160151.28;;;16.18;100.00
29331;BME280;16331;52.528;13.342;2022-09-17T09:38:02;160131.97;;;16.11;100.00
29331;BME280;16331;52.528;13.342;2022-09-17T09:40:46;160054.78;;;15.82;100.00
29331;BME280;16331;52.528;13.342;2022-09-17T09:43:16;159976.25;;;15.54;100.00
29331;BME280;16331;52.528;13.342;2022-09-17T09:46:19;159791.59;;;14.87;100.00
29331;BME280;16331;52.528;13.342;2022-09-17T09:57:03;159919.72;;;15.33;100.00
29331;BME280;16331;52.528;13.342;2022-09-17T09:59:32;159944.53;;;15.42;100.00
29331;BME280;16331;52.528;13.342;2022-09-17T10:02:04;159976.25;;;15.54;100.00
29331;BME280;16331;52.528;13.342;2022-09-17T10:04:30;160021.69;;;15.70;100.00
29331;BME280;16331;52.528;13.342;2022-09-17T10:07:10;160147.16;;;16.16;100.00
29331;BME280;16331;52.528;13.342;2022-09-17T10:09:38;160115.44;;;16.05;100.00
29331;BME280;16331;52.528;13.342;2022-09-17T10:14:37;160196.81;;;16.34;100.00
29331;BME280;16331;52.528;13.342;2022-09-17T10:17:26;160205.06;;;16.37;100.00
29331;BME280;16331;52.528;13.342;2022-09-17T10:22:36;160348.56;;;16.89;100.00
29331;BME280;16331;52.528;13.342;2022-09-17T10:25:15;160329.22;;;16.82;100.00
29331;BME280;16331;52.528;13.342;2022-09-17T10:27:44;160112.69;;;16.04;100.00
29331;BME280;16331;52.528;13.342;2022-09-17T10:32:36;159783.34;;;14.84;100.00
29331;BME280;16331;52.528;13.342;2022-09-17T10:35:04;159724.09;;;14.62;100.00
29331;BME280;16331;52.528;13.342;2022-09-17T10:42:47;160063.06;;;15.85;100.00
29331;BME280;16331;52.528;13.342;2022-09-17T10:47:50;160246.47;;;16.52;100.00
29331;BME280;16331;52.528;13.342;2022-09-17T10:50:26;160347.16;;;16.89;100.00
29331;BME280;16331;52.528;13.342;2022-09-17T10:53:01;160416.16;;;17.14;100.00
29331;BME280;16331;52.528;13.342;2022-09-17T10:55:41;160395.44;;;17.06;100.00
29331;BME280;16331;52.528;13.342;2022-09-17T10:58:51;160274.06;;;16.62;100.00
29331;BME280;16331;52.528;13.342;2022-09-17T11:04:21;160365.09;;;16.95;100.00
29331;BME280;16331;52.528;13.342;2022-09-17T11:10:12;160505.91;;;17.47;100.00
29331;BME280;16331;52.528;13.342;2022-09-17T11:12:49;160456.19;;;17.28;100.00
29331;BME280;16331;52.528;13.342;2022-09-17T11:15:27;160367.88;;;16.96;100.00
29331;BME280;16331;52.528;13.342;2022-09-17T11:18:11;160551.47;;;17.63;100.00
29331;BME280;16331;52.528;13.342;2022-09-17T11:23:54;160457.53;;;17.29;95.92
29331;BME280;16331;52.528;13.342;2022-09-17T11:26:45;160544.59;;;17.61;94.34
29331;BME280;16331;52.528;13.342;2022-09-17T11:35:02;160436.84;;;17.21;100.00
29331;BME280;16331;52.528;13.342;2022-09-17T11:37:55;160447.88;;;17.25;100.00
29331;BME280;16331;52.528;13.342;2022-09-17T11:40:42;160427.19;;;17.18;100.00
29331;BME280;16331;52.528;13.342;2022-09-17T11:43:31;160318.22;;;16.78;100.00
29331;BME280;16331;52.528;13.342;2022-09-17T11:46:06;160465.81;;;17.32;100.00
29331;BME280;16331;52.528;13.342;2022-09-17T11:51:22;160833.25;;;18.65;89.31
29331;BME280;16331;52.528;13.342;2022-09-17T11:54:05;160780.75;;;18.46;88.24
29331;BME280;16331;52.528;13.342;2022-09-17T11:56:43;160579.09;;;17.73;93.06
29331;BME280;16331;52.528;13.342;2022-09-17T11:59:42;160543.19;;;17.60;95.46
29331;BME280;16331;52.528;13.342;2022-09-17T12:02:24;160713.00;;;18.22;88.35
29331;BME280;16331;52.528;13.342;2022-09-17T12:05:22;160610.81;;;17.85;89.52
29331;BME280;16331;52.528;13.342;2022-09-17T12:08:02;160580.44;;;17.74;90.97
29331;BME280;16331;52.528;13.342;2022-09-17T12:11:26;160373.38;;;16.98;95.13
29331;BME280;16331;52.528;13.342;2022-09-17T12:14:07;160276.81;;;16.63;98.78
29331;BME280;16331;52.528;13.342;2022-09-17T12:16:42;160231.31;;;16.47;97.78
29331;BME280;16331;52.528;13.342;2022-09-17T12:19:11;160218.81;;;16.42;93.96
29331;BME280;16331;52.528;13.342;2022-09-17T12:21:45;160475.50;;;17.35;87.58
29331;BME280;16331;52.528;13.342;2022-09-17T12:24:20;160585.97;;;17.76;82.91
29331;BME280;16331;52.528;13.342;2022-09-17T12:32:56;161094.53;;;19.60;79.42
29331;BME280;16331;52.528;13.342;2022-09-17T12:52:00;160632.91;;;17.93;88.43
29331;BME280;16331;52.528;13.342;2022-09-17T12:57:21;160341.69;;;16.87;94.93
29331;BME280;16331;52.528;13.342;2022-09-17T12:59:55;160348.56;;;16.89;94.00
29331;BME280;16331;52.528;13.342;2022-09-17T13:02:33;160387.16;;;17.03;86.81
29331;BME280;16331;52.528;13.342;2022-09-17T13:05:32;160718.53;;;18.24;71.95
29331;BME280;16331;52.528;13.342;2022-09-17T13:20:21;161705.03;;;21.82;51.12
29331;BME280;16331;52.528;13.342;2022-09-17T13:22:52;161506.91;;;21.10;53.30
29331;BME280;16331;52.528;13.342;2022-09-17T13:25:21;161512.47;;;21.12;55.64
29331;BME280;16331;52.528;13.342;2022-09-17T13:27:49;161578.94;;;21.36;56.18
29331;BME280;16331;52.528;13.342;2022-09-17T13:30:18;161515.22;;;21.13;57.00
29331;BME280;16331;52.528;13.342;2022-09-17T13:32:48;161660.66;;;21.66;55.31
29331;BME280;16331;52.528;13.342;2022-09-17T13:37:42;161899.06;;;22.52;52.25
29331;BME280;16331;52.528;13.342;2022-09-17T13:40:35;161892.06;;;22.49;49.31
29331;BME280;16331;52.528;13.342;2022-09-17T13:45:32;161792.31;;;22.13;50.14
29331;BME280;16331;52.528;13.342;2022-09-17T13:48:04;161659.25;;;21.65;49.49
29331;BME280;16331;52.528;13.342;2022-09-17T13:50:33;161667.56;;;21.68;50.37
29331;BME280;16331;52.528;13.342;2022-09-17T13:55:44;160856.75;;;18.74;63.56
29331;BME280;16331;52.528;13.342;2022-09-17T14:00:58;160769.69;;;18.42;70.70
29331;BME280;16331;52.528;13.342;2022-09-17T14:19:25;161853.25;;;22.35;49.18
29331;BME280;16331;52.528;13.342;2022-09-17T14:22:12;161781.19;;;22.09;48.17
29331;BME280;16331;52.528;13.342;2022-09-17T14:24:46;161250.84;;;20.17;54.00
29331;BME280;16331;52.528;13.342;2022-09-17T14:32:43;160290.59;;;16.68;83.42
29331;BME280;16331;52.528;13.342;2022-09-17T14:35:16;160185.75;;;16.30;86.63
29331;BME280;16331;52.528;13.342;2022-09-17T14:37:51;160177.47;;;16.27;88.64
29331;BME280;16331;52.528;13.342;2022-09-17T14:40:19;160272.66;;;16.62;88.81
29331;BME280;16331;52.528;13.342;2022-09-17T14:42:48;160642.56;;;17.96;79.01
29331;BME280;16331;52.528;13.342;2022-09-17T14:45:35;160504.56;;;17.46;80.85
29331;BME280;16331;52.528;13.342;2022-09-17T14:50:51;160805.59;;;18.55;73.95
29331;BME280;16331;52.528;13.342;2022-09-17T14:53:18;161065.47;;;19.50;68.62
29331;BME280;16331;52.528;13.342;2022-09-17T14:55:49;161102.84;;;19.63;64.10
29331;BME280;16331;52.528;13.342;2022-09-17T14:58:39;160733.75;;;18.29;70.99
29331;BME280;16331;52.528;13.342;2022-09-17T15:01:23;160558.34;;;17.66;74.25
29331;BME280;16331;52.528;13.342;2022-09-17T15:03:49;160400.97;;;17.08;73.37
29331;BME280;16331;52.528;13.342;2022-09-17T15:06:32;160279.59;;;16.64;75.77
29331;BME280;16331;52.528;13.342;2022-09-17T15:08:58;160282.34;;;16.65;77.59
29331;BME280;16331;52.528;13.342;2022-09-17T15:11:26;160227.19;;;16.45;79.73
29331;BME280;16331;52.528;13.342;2022-09-17T15:13:53;160196.81;;;16.34;81.66
29331;BME280;16331;52.528;13.342;2022-09-17T15:16:25;160265.78;;;16.59;82.28
29331;BME280;16331;52.528;13.342;2022-09-17T15:18:57;160285.06;;;16.66;82.89
29331;BME280;16331;52.528;13.342;2022-09-17T15:21:41;160282.34;;;16.65;84.35
29331;BME280;16331;52.528;13.342;2022-09-17T15:27:12;160263.00;;;16.58;84.27
29331;BME280;16331;52.528;13.342;2022-09-17T15:29:43;160214.69;;;16.41;85.83
29331;BME280;16331;52.528;13.342;2022-09-17T15:32:12;160125.09;;;16.08;86.92
29331;BME280;16331;52.528;13.342;2022-09-17T15:34:39;160075.44;;;15.90;87.71
29331;BME280;16331;52.528;13.342;2022-09-17T15:37:17;160003.78;;;15.64;90.32
29331;BME280;16331;52.528;13.342;2022-09-17T15:39:48;160001.03;;;15.63;91.37
29331;BME280;16331;52.528;13.342;2022-09-17T15:42:27;159999.63;;;15.62;90.90
29331;BME280;16331;52.528;13.342;2022-09-17T15:45:20;159945.94;;;15.43;94.02
29331;BME280;16331;52.528;13.342;2022-09-17T15:50:20;159830.16;;;15.01;95.55